createdAt,value
2023-01-13T00:00:15.297Z,18.80
2023-01-13T00:01:18.711Z,18.58
2023-01-13T00:02:20.430Z,19.65
2023-01-13T00:03:22.949Z,21.85
2023-01-13T00:04:24.703Z,23.27
2023-01-13T00:05:26.869Z,23.13
2023-01-13T00:06:29.689Z,23.10
2023-01-13T00:07:31.458Z,22.08
2023-01-13T00:08:33.565Z,24.42
2023-01-13T00:09:35.282Z,23.60
2023-01-13T00:10:37.069Z,22.98
2023-01-13T00:11:38.766Z,21.65
2023-01-13T00:12:41.455Z,22.75
2023-01-13T00:13:43.176Z,24.05
2023-01-13T00:14:44.953Z,23.05
2023-01-13T00:16:16.480Z,24.23
2023-01-13T00:17:18.197Z,22.45
2023-01-13T00:18:20.245Z,23.92
2023-01-13T00:19:21.933Z,23.47
2023-01-13T00:20:23.615Z,23.27
2023-01-13T00:21:25.444Z,24.33
2023-01-13T00:22:27.144Z,25.58
2023-01-13T00:23:29.632Z,24.02
2023-01-13T00:24:31.333Z,24.73
2023-01-13T00:25:33.055Z,24.17
2023-01-13T00:26:36.033Z,24.00
2023-01-13T00:27:37.828Z,24.83
2023-01-13T00:28:39.711Z,23.48
2023-01-13T00:29:41.450Z,23.50
2023-01-13T00:30:43.221Z,24.95
2023-01-13T00:31:44.930Z,23.80
2023-01-13T00:32:46.649Z,24.08
2023-01-13T00:33:49.297Z,23.33
2023-01-13T00:34:51.061Z,21.75
2023-01-13T00:35:57.692Z,23.50
2023-01-13T00:36:59.464Z,24.70
2023-01-13T00:38:01.145Z,25.05
2023-01-13T00:39:03.396Z,22.33
2023-01-13T00:40:05.909Z,21.48
2023-01-13T00:41:09.461Z,22.80
2023-01-13T00:42:29.707Z,21.52
2023-01-13T00:43:32.786Z,21.20
2023-01-13T00:44:34.714Z,20.35
2023-01-13T00:45:36.426Z,21.10
2023-01-13T00:46:38.393Z,21.35
2023-01-13T00:47:40.110Z,21.95
2023-01-13T00:48:41.900Z,21.08
2023-01-13T00:49:43.594Z,21.90
2023-01-13T00:50:45.679Z,21.73
2023-01-13T00:51:47.376Z,21.75
2023-01-13T00:52:49.052Z,22.45
2023-01-13T00:53:51.419Z,21.40
2023-01-13T00:54:53.236Z,21.13
2023-01-13T00:56:21.846Z,21.30
2023-01-13T00:57:26.142Z,21.08
2023-01-13T00:58:28.112Z,23.63
2023-01-13T00:59:29.815Z,24.17
2023-01-13T01:00:34.852Z,26.63
2023-01-13T01:01:36.732Z,25.95
2023-01-13T01:02:38.555Z,27.98
2023-01-13T01:03:40.305Z,28.05
2023-01-13T01:04:42.076Z,25.70
2023-01-13T01:05:43.857Z,25.35
2023-01-13T01:06:45.558Z,25.30
2023-01-13T01:07:47.269Z,27.25
2023-01-13T01:08:49.005Z,31.95
2023-01-13T01:09:50.714Z,27.10
2023-01-13T01:11:01.253Z,29.48
2023-01-13T01:12:03.066Z,28.17
2023-01-13T01:13:04.774Z,30.13
2023-01-13T01:14:06.566Z,28.40
2023-01-13T01:15:10.211Z,26.70
2023-01-13T01:16:14.378Z,27.85
2023-01-13T01:17:16.124Z,29.02
2023-01-13T01:18:17.817Z,31.30
2023-01-13T01:19:19.547Z,28.05
2023-01-13T01:20:21.278Z,25.30
2023-01-13T01:21:23.927Z,25.25
2023-01-13T01:22:25.616Z,26.80
2023-01-13T01:23:30.972Z,25.73
2023-01-13T01:24:32.690Z,24.38
2023-01-13T01:25:34.431Z,23.17
2023-01-13T01:26:36.149Z,23.77
2023-01-13T01:27:38.039Z,25.75
2023-01-13T01:28:39.888Z,24.00
2023-01-13T01:29:41.578Z,23.90
2023-01-13T01:30:43.285Z,24.05
2023-01-13T01:31:45.133Z,23.83
2023-01-13T01:32:46.925Z,24.35
2023-01-13T01:33:49.295Z,24.92
2023-01-13T01:34:51.440Z,24.80
2023-01-13T01:35:56.507Z,24.42
2023-01-13T01:36:58.187Z,24.33
2023-01-13T01:37:59.966Z,23.45
2023-01-13T01:39:01.704Z,24.77
2023-01-13T01:40:03.583Z,24.45
2023-01-13T01:41:05.444Z,23.92
2023-01-13T01:42:25.655Z,24.83
2023-01-13T01:44:02.489Z,24.27
2023-01-13T01:45:21.144Z,23.45
2023-01-13T01:46:22.854Z,22.92
2023-01-13T01:47:24.571Z,23.20
2023-01-13T01:48:27.086Z,23.67
2023-01-13T01:49:32.997Z,23.92
2023-01-13T01:50:35.177Z,21.90
2023-01-13T01:51:44.631Z,23.23
2023-01-13T01:52:48.833Z,24.10
2023-01-13T01:53:50.581Z,23.75
2023-01-13T01:54:59.179Z,22.85
2023-01-13T01:56:00.979Z,23.88
2023-01-13T01:57:02.671Z,21.85
2023-01-13T01:58:29.393Z,22.45
2023-01-13T01:59:31.650Z,20.70
2023-01-13T02:00:33.487Z,22.85
2023-01-13T02:01:35.500Z,20.58
2023-01-13T02:02:37.356Z,21.05
2023-01-13T02:03:40.079Z,20.75
2023-01-13T02:04:50.857Z,22.20
2023-01-13T02:05:52.616Z,19.20
2023-01-13T02:06:54.328Z,19.35
2023-01-13T02:07:57.181Z,21.38
2023-01-13T02:08:59.559Z,17.33
2023-01-13T02:10:06.820Z,17.55
2023-01-13T02:11:28.496Z,19.17
2023-01-13T02:12:30.254Z,18.92
2023-01-13T02:13:31.997Z,17.88
2023-01-13T02:14:33.876Z,19.02
2023-01-13T02:15:44.819Z,18.83
2023-01-13T02:17:21.877Z,18.25
2023-01-13T02:18:34.848Z,16.77
2023-01-13T02:20:29.067Z,17.60
2023-01-13T02:21:42.586Z,16.07
2023-01-13T02:23:31.720Z,16.15
2023-01-13T02:24:59.611Z,17.13
2023-01-13T02:26:25.335Z,16.67
2023-01-13T02:27:47.881Z,17.25
2023-01-13T02:29:13.282Z,16.38
2023-01-13T02:30:45.414Z,17.33
2023-01-13T02:31:47.477Z,16.67
2023-01-13T02:33:15.340Z,15.32
2023-01-13T02:34:34.881Z,16.65
2023-01-13T02:35:51.614Z,16.00
2023-01-13T02:36:58.319Z,15.27
2023-01-13T02:38:00.056Z,15.60
2023-01-13T02:39:09.731Z,16.08
2023-01-13T02:40:26.110Z,15.65
2023-01-13T02:41:50.448Z,15.90
2023-01-13T02:43:43.461Z,15.40
2023-01-13T02:44:51.107Z,15.55
2023-01-13T02:45:56.137Z,14.52
2023-01-13T02:47:08.844Z,16.63
2023-01-13T02:48:10.567Z,15.20
2023-01-13T02:49:14.921Z,14.38
2023-01-13T02:50:18.428Z,16.08
2023-01-13T02:51:21.474Z,15.63
2023-01-13T02:52:45.970Z,15.15
2023-01-13T02:53:54.139Z,15.18
2023-01-13T02:54:57.693Z,14.10
2023-01-13T02:55:59.493Z,14.95
2023-01-13T02:57:01.249Z,14.65
2023-01-13T02:58:04.521Z,14.85
2023-01-13T02:59:06.237Z,14.77
2023-01-13T03:00:08.401Z,15.15
2023-01-13T03:01:10.223Z,15.30
2023-01-13T03:02:14.072Z,14.88
2023-01-13T03:03:15.797Z,15.27
2023-01-13T03:04:44.721Z,16.77
2023-01-13T03:05:47.143Z,16.20
2023-01-13T03:06:53.880Z,17.45
2023-01-13T03:08:20.314Z,18.05
2023-01-13T03:09:29.981Z,17.90
2023-01-13T03:10:56.347Z,18.13
2023-01-13T03:12:19.045Z,17.50
2023-01-13T03:13:51.324Z,19.15
2023-01-13T03:15:04.683Z,19.02
2023-01-13T03:16:10.629Z,19.42
2023-01-13T03:17:33.177Z,18.70
2023-01-13T03:18:45.739Z,19.10
2023-01-13T03:19:54.060Z,19.55
2023-01-13T03:21:06.103Z,19.83
2023-01-13T03:22:35.273Z,20.07
2023-01-13T03:23:48.439Z,19.83
2023-01-13T03:25:12.322Z,19.65
2023-01-13T03:26:42.482Z,19.48
2023-01-13T03:27:58.023Z,21.15
2023-01-13T03:29:19.126Z,21.60
2023-01-13T03:30:26.978Z,21.70
2023-01-13T03:31:31.240Z,22.55
2023-01-13T03:32:38.078Z,22.85
2023-01-13T03:33:46.062Z,24.00
2023-01-13T03:34:50.530Z,23.63
2023-01-13T03:35:53.561Z,24.67
2023-01-13T03:36:55.373Z,25.20
2023-01-13T03:38:00.609Z,23.95
2023-01-13T03:39:07.737Z,23.65
2023-01-13T03:40:15.690Z,24.75
2023-01-13T03:41:23.422Z,23.80
2023-01-13T03:42:25.420Z,24.00
2023-01-13T03:43:54.022Z,24.58
2023-01-13T03:44:59.533Z,24.73
2023-01-13T03:46:04.208Z,24.10
2023-01-13T03:47:23.622Z,23.73
2023-01-13T03:48:26.545Z,24.30
2023-01-13T03:49:36.178Z,23.92
2023-01-13T03:50:41.086Z,25.05
2023-01-13T03:51:43.599Z,25.88
2023-01-13T03:52:53.235Z,24.95
2023-01-13T03:54:00.034Z,24.38
2023-01-13T03:55:12.285Z,23.33
2023-01-13T03:56:19.979Z,23.97
2023-01-13T03:57:23.776Z,23.80
2023-01-13T03:58:30.590Z,23.13
2023-01-13T03:59:34.523Z,25.23
2023-01-13T04:00:42.704Z,24.75
2023-01-13T04:01:47.847Z,23.80
2023-01-13T04:03:02.784Z,24.73
2023-01-13T04:04:09.742Z,25.00
2023-01-13T04:05:11.460Z,23.50
2023-01-13T04:06:17.530Z,24.27
2023-01-13T04:07:33.174Z,23.33
2023-01-13T04:08:34.951Z,24.15
2023-01-13T04:09:46.639Z,23.88
2023-01-13T04:10:52.611Z,24.60
2023-01-13T04:11:57.578Z,24.33
2023-01-13T04:13:02.033Z,25.17
2023-01-13T04:14:03.695Z,24.40
2023-01-13T04:15:05.767Z,24.75
2023-01-13T04:16:07.902Z,24.52
2023-01-13T04:17:09.601Z,23.90
2023-01-13T04:18:21.714Z,25.50
2023-01-13T04:19:23.309Z,24.58
2023-01-13T04:20:24.930Z,25.77
2023-01-13T04:21:26.574Z,25.63
2023-01-13T04:22:28.197Z,25.70
2023-01-13T04:23:29.896Z,24.77
2023-01-13T04:24:31.501Z,26.25
2023-01-13T04:25:33.207Z,25.27
2023-01-13T04:26:34.855Z,25.00
2023-01-13T04:27:36.731Z,25.25
2023-01-13T04:28:40.819Z,24.52
2023-01-13T04:29:42.412Z,24.95
2023-01-13T04:30:44.218Z,26.73
2023-01-13T04:31:45.841Z,26.75
2023-01-13T04:32:47.434Z,24.30
2023-01-13T04:33:49.084Z,25.90
2023-01-13T04:34:50.694Z,26.55
2023-01-13T04:35:52.852Z,25.75
2023-01-13T04:36:54.469Z,25.13
2023-01-13T04:37:56.150Z,26.95
2023-01-13T04:38:57.769Z,27.20
2023-01-13T04:39:59.346Z,26.23
2023-01-13T04:41:01.018Z,25.60
2023-01-13T04:42:02.737Z,25.35
2023-01-13T04:43:04.425Z,25.17
2023-01-13T04:44:06.261Z,25.15
2023-01-13T04:45:09.335Z,24.42
2023-01-13T04:46:11.003Z,26.25
2023-01-13T04:47:12.606Z,25.07
2023-01-13T04:48:14.314Z,26.08
2023-01-13T04:49:15.919Z,27.42
2023-01-13T04:50:20.593Z,25.27
2023-01-13T04:51:22.179Z,25.75
2023-01-13T04:52:23.875Z,24.98
2023-01-13T04:53:25.509Z,25.05
2023-01-13T04:54:27.085Z,24.48
2023-01-13T04:55:28.730Z,25.80
2023-01-13T04:56:30.325Z,26.05
2023-01-13T04:57:33.434Z,24.40
2023-01-13T04:58:35.154Z,24.52
2023-01-13T04:59:36.751Z,25.33
2023-01-13T05:00:38.476Z,25.15
2023-01-13T05:01:40.357Z,25.10
2023-01-13T05:02:42.035Z,27.13
2023-01-13T05:03:43.706Z,23.05
2023-01-13T05:04:48.561Z,23.65
2023-01-13T05:05:53.335Z,24.40
2023-01-13T05:06:54.980Z,25.15
2023-01-13T05:07:57.185Z,25.97
2023-01-13T05:08:58.918Z,22.23
2023-01-13T05:10:00.520Z,26.00
2023-01-13T05:11:22.062Z,23.90
2023-01-13T05:12:42.200Z,24.50
2023-01-13T05:14:02.239Z,23.08
2023-01-13T05:15:22.669Z,22.75
2023-01-13T05:16:42.838Z,22.55
2023-01-13T05:17:44.646Z,23.02
2023-01-13T05:18:46.288Z,22.77
2023-01-13T05:19:47.969Z,21.58
2023-01-13T05:20:49.884Z,23.27
2023-01-13T05:22:09.995Z,21.40
2023-01-13T05:23:30.135Z,23.73
2023-01-13T05:24:50.133Z,22.17
2023-01-13T05:25:51.720Z,22.75
2023-01-13T05:26:53.306Z,23.83
2023-01-13T05:27:58.955Z,21.95
2023-01-13T05:29:00.551Z,23.00
2023-01-13T05:30:02.210Z,22.97
2023-01-13T05:31:03.880Z,24.50
2023-01-13T05:32:08.029Z,24.30
2023-01-13T05:33:10.669Z,23.90
2023-01-13T05:34:12.293Z,22.73
2023-01-13T05:35:16.037Z,22.13
2023-01-13T05:36:18.573Z,21.95
2023-01-13T05:37:20.183Z,21.52
2023-01-13T05:38:21.922Z,23.65
2023-01-13T05:39:23.496Z,21.98
2023-01-13T05:40:43.318Z,21.77
2023-01-13T05:42:03.351Z,21.05
2023-01-13T05:43:21.466Z,20.85
2023-01-13T05:44:23.296Z,20.63
2023-01-13T05:45:24.954Z,21.55
2023-01-13T05:46:26.609Z,20.08
2023-01-13T05:47:28.223Z,21.42
2023-01-13T05:48:33.733Z,20.63
2023-01-13T05:49:35.451Z,20.50
2023-01-13T05:50:37.040Z,21.30
2023-01-13T05:51:38.656Z,21.80
2023-01-13T05:52:40.291Z,20.13
2023-01-13T05:53:42.002Z,20.05
2023-01-13T05:54:43.635Z,19.40
2023-01-13T05:55:45.317Z,21.20
2023-01-13T05:56:46.913Z,21.48
2023-01-13T05:57:48.587Z,21.13
2023-01-13T05:58:50.194Z,20.25
2023-01-13T05:59:51.781Z,21.13
2023-01-13T06:00:53.794Z,20.57
2023-01-13T06:01:55.433Z,20.33
2023-01-13T06:02:57.145Z,21.13
2023-01-13T06:03:58.776Z,19.90
2023-01-13T06:05:00.487Z,21.05
2023-01-13T06:06:04.174Z,20.33
2023-01-13T06:07:06.146Z,19.73
2023-01-13T06:08:07.977Z,20.42
2023-01-13T06:09:09.586Z,21.17
2023-01-13T06:10:11.615Z,20.17
2023-01-13T06:11:13.272Z,21.60
2023-01-13T06:12:14.878Z,21.38
2023-01-13T06:13:16.537Z,21.52
2023-01-13T06:14:18.139Z,21.00
2023-01-13T06:15:19.778Z,21.55
2023-01-13T06:16:21.504Z,21.50
2023-01-13T06:17:23.141Z,21.57
2023-01-13T06:18:25.097Z,21.55
2023-01-13T06:19:26.743Z,20.58
2023-01-13T06:20:28.361Z,20.30
2023-01-13T06:21:31.919Z,23.17
2023-01-13T06:22:35.743Z,20.95
2023-01-13T06:23:38.735Z,20.48
2023-01-13T06:24:40.452Z,20.75
2023-01-13T06:26:04.514Z,21.45
2023-01-13T06:27:06.809Z,22.33
2023-01-13T06:28:08.448Z,23.60
2023-01-13T06:29:13.414Z,19.45
2023-01-13T06:30:15.099Z,20.98
2023-01-13T06:31:16.953Z,20.23
2023-01-13T06:32:32.646Z,20.42
2023-01-13T06:33:43.766Z,19.73
2023-01-13T06:34:47.787Z,19.77
2023-01-13T06:35:52.158Z,21.80
2023-01-13T06:36:53.880Z,20.27
2023-01-13T06:37:56.452Z,19.73
2023-01-13T06:38:58.989Z,20.15
2023-01-13T06:40:01.638Z,20.65
2023-01-13T06:41:04.171Z,20.80
2023-01-13T06:42:24.403Z,20.05
2023-01-13T06:43:25.996Z,20.25
2023-01-13T06:44:27.825Z,19.75
2023-01-13T06:45:29.412Z,21.17
2023-01-13T06:46:31.013Z,19.80
2023-01-13T06:47:32.646Z,19.83
2023-01-13T06:48:35.472Z,20.23
2023-01-13T06:49:37.298Z,21.50
2023-01-13T06:50:38.986Z,20.40
2023-01-13T06:51:40.597Z,21.23
2023-01-13T06:52:42.209Z,21.02
2023-01-13T06:53:43.883Z,20.83
2023-01-13T06:54:45.478Z,21.05
2023-01-13T06:55:47.072Z,23.25
2023-01-13T06:56:48.691Z,20.83
2023-01-13T06:57:54.591Z,20.17
2023-01-13T06:58:56.275Z,20.13
2023-01-13T06:59:57.862Z,20.52
2023-01-13T07:01:00.724Z,21.63
2023-01-13T07:02:02.873Z,21.23
2023-01-13T07:03:14.945Z,20.27
2023-01-13T07:04:16.692Z,22.20
2023-01-13T07:05:19.206Z,21.70
2023-01-13T07:06:20.800Z,23.00
2023-01-13T07:07:22.435Z,21.77
2023-01-13T07:08:24.070Z,22.13
2023-01-13T07:09:25.722Z,22.98
2023-01-13T07:10:27.305Z,22.45
2023-01-13T07:11:28.946Z,22.27
2023-01-13T07:12:30.530Z,21.75
2023-01-13T07:13:50.884Z,21.23
2023-01-13T07:15:10.623Z,21.40
2023-01-13T07:16:12.336Z,21.13
2023-01-13T07:17:13.944Z,21.45
2023-01-13T07:18:15.657Z,21.40
2023-01-13T07:19:23.248Z,21.77
2023-01-13T07:20:24.970Z,20.77
2023-01-13T07:21:26.621Z,21.52
2023-01-13T07:22:28.220Z,21.05
2023-01-13T07:23:34.476Z,20.75
2023-01-13T07:24:36.116Z,22.63
2023-01-13T07:25:37.716Z,22.42
2023-01-13T07:26:39.549Z,22.27
2023-01-13T07:27:41.203Z,22.48
2023-01-13T07:28:42.859Z,21.88
2023-01-13T07:29:44.467Z,22.50
2023-01-13T07:30:46.127Z,22.48
2023-01-13T07:31:49.999Z,23.75
2023-01-13T07:32:51.895Z,22.52
2023-01-13T07:33:53.525Z,22.23
2023-01-13T07:34:55.190Z,22.88
2023-01-13T07:35:57.908Z,22.67
2023-01-13T07:36:59.562Z,21.73
2023-01-13T07:38:01.159Z,22.02
2023-01-13T07:39:03.054Z,21.90
2023-01-13T07:40:05.154Z,21.67
2023-01-13T07:41:25.247Z,21.92
2023-01-13T07:42:45.702Z,21.92
2023-01-13T07:43:47.786Z,20.13
2023-01-13T07:44:49.865Z,20.80
2023-01-13T07:46:01.965Z,20.92
2023-01-13T07:47:03.729Z,20.98
2023-01-13T07:48:05.526Z,20.70
2023-01-13T07:49:07.324Z,19.13
2023-01-13T07:50:09.504Z,20.98
2023-01-13T07:51:11.695Z,20.77
2023-01-13T07:52:13.286Z,19.67
2023-01-13T07:53:14.943Z,18.60
2023-01-13T07:54:17.170Z,19.55
2023-01-13T07:55:18.916Z,20.23
2023-01-13T07:56:20.530Z,23.38
2023-01-13T07:57:22.172Z,21.50
2023-01-13T07:58:24.842Z,19.30
2023-01-13T07:59:26.473Z,21.40
2023-01-13T08:00:28.116Z,20.00
2023-01-13T08:01:31.878Z,20.30
2023-01-13T08:02:33.772Z,20.15
2023-01-13T08:03:35.391Z,20.02
2023-01-13T08:04:36.982Z,19.83
2023-01-13T08:05:38.591Z,20.13
2023-01-13T08:06:41.480Z,19.58
2023-01-13T08:07:43.128Z,20.50
2023-01-13T08:08:44.845Z,20.83
2023-01-13T08:09:46.500Z,21.48
2023-01-13T08:10:48.233Z,20.83
2023-01-13T08:12:09.811Z,20.33
2023-01-13T08:13:18.462Z,22.58
2023-01-13T08:14:20.195Z,22.30
2023-01-13T08:15:21.819Z,23.48
2023-01-13T08:16:23.995Z,22.33
2023-01-13T08:17:25.644Z,21.80
2023-01-13T08:18:27.265Z,21.10
2023-01-13T08:19:28.961Z,23.92
2023-01-13T08:20:30.656Z,24.27
2023-01-13T08:21:32.256Z,22.95
2023-01-13T08:22:33.925Z,22.20
2023-01-13T08:23:35.608Z,23.42
2023-01-13T08:24:37.265Z,21.05
2023-01-13T08:25:38.936Z,23.38
2023-01-13T08:26:40.556Z,22.60
2023-01-13T08:27:42.194Z,23.90
2023-01-13T08:28:44.150Z,25.50
2023-01-13T08:29:45.949Z,20.70
2023-01-13T08:30:47.720Z,21.25
2023-01-13T08:31:49.482Z,20.38
2023-01-13T08:32:51.190Z,20.37
2023-01-13T08:33:52.786Z,20.08
2023-01-13T08:34:54.411Z,20.15
2023-01-13T08:35:56.389Z,19.63
2023-01-13T08:36:58.294Z,20.35
2023-01-13T08:37:59.895Z,19.95
2023-01-13T08:39:01.701Z,20.50
2023-01-13T08:40:03.446Z,20.55
2023-01-13T08:41:38.005Z,20.25
2023-01-13T08:42:39.697Z,24.77
2023-01-13T08:43:41.368Z,20.40
2023-01-13T08:44:43.253Z,23.40
2023-01-13T08:45:45.099Z,22.90
2023-01-13T08:46:46.820Z,21.77
2023-01-13T08:47:48.467Z,20.92
2023-01-13T08:48:50.136Z,21.50
2023-01-13T08:49:51.740Z,29.17
2023-01-13T08:50:53.465Z,24.25
2023-01-13T08:51:55.139Z,28.05
2023-01-13T08:52:57.409Z,36.05
2023-01-13T08:53:59.026Z,28.40
2023-01-13T08:55:00.648Z,29.48
2023-01-13T08:56:02.311Z,35.67
2023-01-13T08:57:03.967Z,27.17
2023-01-13T08:58:15.368Z,23.13
2023-01-13T08:59:19.263Z,21.23
2023-01-13T09:00:21.016Z,22.60
2023-01-13T09:01:23.126Z,20.25
2023-01-13T09:02:25.571Z,20.20
2023-01-13T09:03:27.270Z,20.17
2023-01-13T09:04:29.151Z,19.60
2023-01-13T09:05:30.883Z,19.88
2023-01-13T09:06:32.658Z,18.83
2023-01-13T09:07:35.344Z,19.85
2023-01-13T09:08:36.934Z,19.60
2023-01-13T09:09:38.631Z,18.35
2023-01-13T09:10:40.629Z,18.73
2023-01-13T09:12:01.797Z,18.90
2023-01-13T09:13:12.135Z,19.17
2023-01-13T09:14:17.732Z,18.83
2023-01-13T09:15:19.476Z,19.07
2023-01-13T09:16:21.121Z,20.05
2023-01-13T09:17:23.274Z,20.85
2023-01-13T09:18:24.983Z,21.08
2023-01-13T09:19:27.260Z,18.92
2023-01-13T09:20:28.848Z,18.80
2023-01-13T09:21:30.461Z,18.88
2023-01-13T09:22:32.096Z,19.60
2023-01-13T09:23:33.734Z,18.27
2023-01-13T09:24:35.341Z,19.05
2023-01-13T09:25:37.097Z,18.33
2023-01-13T09:26:38.707Z,18.48
2023-01-13T09:27:40.435Z,19.08
2023-01-13T09:28:42.151Z,20.88
2023-01-13T09:29:43.839Z,18.98
2023-01-13T09:30:45.494Z,21.40
2023-01-13T09:31:47.130Z,19.70
2023-01-13T09:32:48.796Z,18.77
2023-01-13T09:34:10.352Z,18.65
2023-01-13T09:35:12.024Z,20.00
2023-01-13T09:36:13.656Z,18.87
2023-01-13T09:37:15.366Z,18.52
2023-01-13T09:38:17.066Z,17.17
2023-01-13T09:39:18.826Z,18.83
2023-01-13T09:40:22.649Z,21.52
2023-01-13T09:41:44.559Z,19.27
2023-01-13T09:43:04.493Z,19.95
2023-01-13T09:44:07.871Z,20.27
2023-01-13T09:45:14.302Z,18.70
2023-01-13T09:46:39.241Z,20.48
2023-01-13T09:47:52.435Z,22.97
2023-01-13T09:48:54.043Z,21.70
2023-01-13T09:50:10.168Z,22.55
2023-01-13T09:51:24.490Z,22.10
2023-01-13T09:52:27.153Z,18.35
2023-01-13T09:53:30.810Z,16.67
2023-01-13T09:54:45.235Z,19.58
2023-01-13T09:55:47.055Z,17.10
2023-01-13T09:56:48.918Z,19.33
2023-01-13T09:57:50.511Z,17.73
2023-01-13T09:58:52.394Z,19.80
2023-01-13T09:59:54.012Z,18.83
2023-01-13T10:00:55.662Z,18.30
2023-01-13T10:02:21.012Z,17.20
2023-01-13T10:03:26.935Z,19.77
2023-01-13T10:04:28.672Z,18.50
2023-01-13T10:06:07.391Z,17.88
2023-01-13T10:07:13.259Z,18.67
2023-01-13T10:08:42.463Z,19.15
2023-01-13T10:09:52.172Z,18.83
2023-01-13T10:11:34.320Z,17.00
2023-01-13T10:12:54.654Z,16.33
2023-01-13T10:13:58.630Z,17.48
2023-01-13T10:15:00.308Z,17.25
2023-01-13T10:16:27.302Z,17.75
2023-01-13T10:17:29.137Z,22.13
2023-01-13T10:18:52.289Z,20.70
2023-01-13T10:20:08.863Z,19.50
2023-01-13T10:22:03.422Z,26.38
2023-01-13T10:23:34.580Z,18.85
2023-01-13T10:24:48.263Z,19.17
2023-01-13T10:26:23.187Z,26.23
2023-01-13T10:27:39.889Z,22.33
2023-01-13T10:28:41.477Z,19.55
2023-01-13T10:29:43.173Z,18.85
2023-01-13T10:30:46.447Z,19.52
2023-01-13T10:31:48.066Z,20.23
2023-01-13T10:32:55.018Z,19.13
2023-01-13T10:34:01.482Z,18.88
2023-01-13T10:35:03.248Z,19.23
2023-01-13T10:36:14.758Z,18.77
2023-01-13T10:37:25.906Z,20.13
2023-01-13T10:38:30.255Z,19.52
2023-01-13T10:39:43.125Z,20.55
2023-01-13T10:40:52.159Z,19.98
2023-01-13T10:42:04.159Z,19.83
2023-01-13T10:43:06.801Z,20.08
2023-01-13T10:44:16.536Z,19.83
2023-01-13T10:45:25.098Z,21.92
2023-01-13T10:46:26.867Z,21.02
2023-01-13T10:47:33.272Z,20.93
2023-01-13T10:48:55.981Z,21.50
2023-01-13T10:50:13.538Z,20.33
2023-01-13T10:51:44.224Z,21.48
2023-01-13T10:53:16.402Z,20.30
2023-01-13T10:54:22.678Z,21.30
2023-01-13T10:55:30.664Z,20.25
2023-01-13T10:56:34.007Z,19.83
2023-01-13T10:57:38.297Z,21.02
2023-01-13T10:58:39.907Z,21.95
2023-01-13T10:59:41.799Z,21.70
2023-01-13T11:00:43.802Z,21.70
2023-01-13T11:02:24.373Z,20.35
2023-01-13T11:03:29.880Z,21.02
2023-01-13T11:04:34.034Z,22.17
2023-01-13T11:05:35.800Z,22.38
2023-01-13T11:06:37.711Z,22.70
2023-01-13T11:07:50.636Z,23.73
2023-01-13T11:08:55.203Z,22.70
2023-01-13T11:10:17.239Z,22.55
2023-01-13T11:11:40.048Z,22.57
2023-01-13T11:13:10.136Z,21.27
2023-01-13T11:14:39.474Z,22.83
2023-01-13T11:15:43.880Z,22.63
2023-01-13T11:16:52.947Z,21.52
2023-01-13T11:18:09.446Z,22.70
2023-01-13T11:19:14.176Z,22.05
2023-01-13T11:20:29.695Z,22.40
2023-01-13T11:21:35.976Z,22.35
2023-01-13T11:22:59.979Z,20.10
2023-01-13T11:24:06.840Z,22.47
2023-01-13T11:25:10.951Z,24.00
2023-01-13T11:26:19.396Z,22.55
2023-01-13T11:27:39.163Z,24.15
2023-01-13T11:29:05.569Z,23.30
2023-01-13T11:30:12.837Z,23.20
2023-01-13T11:31:33.565Z,22.85
2023-01-13T11:32:37.620Z,23.50
2023-01-13T11:34:01.957Z,23.67
2023-01-13T11:35:10.030Z,24.38
2023-01-13T11:36:20.522Z,23.73
2023-01-13T11:37:26.969Z,24.30
2023-01-13T11:38:40.906Z,25.15
2023-01-13T11:39:47.747Z,21.88
2023-01-13T11:40:49.476Z,26.13
2023-01-13T11:42:16.383Z,23.65
2023-01-13T11:43:24.013Z,22.77
2023-01-13T11:44:36.179Z,21.95
2023-01-13T11:45:51.094Z,23.90
2023-01-13T11:46:52.854Z,24.27
2023-01-13T11:47:57.665Z,24.47
2023-01-13T11:48:59.356Z,27.35
2023-01-13T11:50:01.203Z,23.77
2023-01-13T11:51:08.969Z,21.17
2023-01-13T11:52:21.707Z,22.48
2023-01-13T11:54:00.817Z,21.63
2023-01-13T11:55:19.213Z,21.13
2023-01-13T11:56:53.292Z,23.13
2023-01-13T11:58:05.298Z,20.80
2023-01-13T11:59:34.428Z,21.00
2023-01-13T12:01:10.263Z,23.83
2023-01-13T12:02:37.778Z,22.30
2023-01-13T12:03:39.456Z,23.27
2023-01-13T12:04:56.223Z,24.13
2023-01-13T12:06:20.899Z,25.27
2023-01-13T12:07:27.853Z,22.33
2023-01-13T12:08:41.147Z,21.20
2023-01-13T12:10:03.459Z,20.90
2023-01-13T12:11:17.927Z,21.80
2023-01-13T12:12:37.316Z,21.15
2023-01-13T12:13:44.884Z,20.23
2023-01-13T12:15:08.356Z,23.90
2023-01-13T12:16:16.147Z,20.85
2023-01-13T12:17:33.029Z,20.85
2023-01-13T12:18:49.350Z,21.58
2023-01-13T12:19:51.512Z,22.00
2023-01-13T12:21:17.559Z,21.27
2023-01-13T12:22:25.689Z,20.58
2023-01-13T12:23:40.444Z,20.65
2023-01-13T12:24:49.466Z,23.50
2023-01-13T12:25:53.880Z,24.20
2023-01-13T12:27:01.742Z,22.75
2023-01-13T12:28:25.048Z,21.77
2023-01-13T12:29:36.663Z,23.17
2023-01-13T12:30:59.879Z,22.73
2023-01-13T12:32:11.727Z,23.85
2023-01-13T12:33:31.683Z,21.98
2023-01-13T12:34:50.044Z,22.67
2023-01-13T12:35:58.982Z,24.50
2023-01-13T12:37:38.419Z,22.58
2023-01-13T12:39:06.693Z,23.20
2023-01-13T12:40:48.045Z,25.60
2023-01-13T12:42:32.547Z,21.60
2023-01-13T12:43:52.646Z,25.90
2023-01-13T12:45:10.375Z,24.95
2023-01-13T12:46:19.224Z,24.23
2023-01-13T12:47:34.652Z,23.35
2023-01-13T12:48:46.332Z,25.48
2023-01-13T12:49:48.010Z,26.75
2023-01-13T12:51:00.660Z,27.15
2023-01-13T12:52:13.925Z,24.00
2023-01-13T12:53:32.861Z,23.20
2023-01-13T12:54:37.169Z,22.98
2023-01-13T12:55:38.815Z,24.92
2023-01-13T12:56:44.843Z,24.05
2023-01-13T12:58:04.664Z,24.65
2023-01-13T12:59:32.860Z,24.13
2023-01-13T13:01:01.594Z,25.17
2023-01-13T13:02:12.493Z,22.45
2023-01-13T13:03:19.524Z,24.65
2023-01-13T13:04:41.344Z,23.83
2023-01-13T13:05:55.968Z,21.10
2023-01-13T13:07:07.672Z,22.38
2023-01-13T13:08:20.495Z,21.98
2023-01-13T13:09:27.421Z,23.30
2023-01-13T13:10:31.078Z,23.05
2023-01-13T13:11:54.037Z,22.73
2023-01-13T13:13:18.346Z,22.10
2023-01-13T13:14:38.211Z,22.40
2023-01-13T13:15:40.023Z,22.38
2023-01-13T13:16:52.336Z,22.50
2023-01-13T13:18:00.195Z,21.45
2023-01-13T13:19:22.645Z,22.23
2023-01-13T13:21:04.251Z,23.45
2023-01-13T13:22:12.071Z,23.50
2023-01-13T13:23:29.655Z,23.60
2023-01-13T13:24:31.278Z,22.23
2023-01-13T13:25:32.886Z,21.55
2023-01-13T13:26:38.792Z,23.20
2023-01-13T13:27:49.970Z,25.15
2023-01-13T13:29:25.296Z,21.63
2023-01-13T13:30:33.663Z,21.42
2023-01-13T13:31:44.629Z,21.92
2023-01-13T13:33:07.214Z,21.48
2023-01-13T13:34:12.932Z,21.58
2023-01-13T13:35:37.303Z,22.02
2023-01-13T13:36:41.589Z,19.95
2023-01-13T13:38:14.660Z,20.50
2023-01-13T13:39:42.168Z,20.40
2023-01-13T13:41:04.175Z,22.55
2023-01-13T13:42:51.557Z,21.70
2023-01-13T13:44:11.573Z,21.77
2023-01-13T13:45:42.308Z,24.02
2023-01-13T13:46:48.873Z,28.83
2023-01-13T13:47:51.582Z,23.38
2023-01-13T13:48:54.304Z,23.95
2023-01-13T13:49:56.788Z,23.90
2023-01-13T13:51:03.824Z,23.27
2023-01-13T13:52:51.675Z,23.30
2023-01-13T13:53:53.372Z,22.15
2023-01-13T13:54:59.653Z,22.07
2023-01-13T13:56:02.909Z,22.45
2023-01-13T13:57:04.519Z,24.40
2023-01-13T13:58:12.885Z,21.73
2023-01-13T13:59:19.084Z,21.02
2023-01-13T14:00:23.810Z,23.00
2023-01-13T14:01:28.739Z,24.42
2023-01-13T14:02:32.207Z,27.70
2023-01-13T14:03:39.885Z,23.98
2023-01-13T14:04:41.919Z,56.70
2023-01-13T14:05:54.568Z,24.50
2023-01-13T14:07:05.058Z,31.35
2023-01-13T14:08:09.352Z,22.27
2023-01-13T14:09:16.554Z,21.05
2023-01-13T14:10:24.926Z,21.02
2023-01-13T14:11:33.309Z,21.10
2023-01-13T14:12:37.661Z,23.83
2023-01-13T14:13:39.284Z,29.35
2023-01-13T14:14:44.361Z,21.98
2023-01-13T14:15:46.536Z,21.48
2023-01-13T14:16:48.165Z,26.17
2023-01-13T14:17:49.806Z,26.08
2023-01-13T14:18:51.437Z,21.90
2023-01-13T14:20:05.187Z,21.92
2023-01-13T14:21:19.326Z,21.50
2023-01-13T14:22:20.977Z,21.70
2023-01-13T14:23:26.496Z,21.23
2023-01-13T14:24:28.445Z,26.85
2023-01-13T14:25:40.154Z,33.80
2023-01-13T14:26:41.952Z,22.33
2023-01-13T14:27:43.797Z,28.97
2023-01-13T14:28:45.453Z,28.88
2023-01-13T14:29:47.100Z,27.80
2023-01-13T14:30:50.186Z,26.83